Time;durP1;ratioP1;P1;durP2;ratioP2;P2;SDS_P1;SDS_P2;PMS_P1;PMS_P2;Temp;Humidity;BMP_temperature;BMP_pressure;BME280_temperature;BME280_humidity;BME280_pressure;Samples;Min_cycle;Max_cycle;Signal;HPM_P1;HPM_P2
2022/07/13 00:00:47;;;;;;;3.57;3.27;;;14.80;99.90;;;;;;5072975;28;20201;-83
2022/07/13 00:03:15;;;;;;;5.00;3.50;;;14.60;99.90;;;;;;5072669;28;20200;-84
2022/07/13 00:05:42;;;;;;;5.03;3.80;;;14.60;99.90;;;;;;5072543;28;20197;-84
2022/07/13 00:08:08;;;;;;;5.03;3.60;;;14.60;99.90;;;;;;5072457;28;20197;-83
2022/07/13 00:10:35;;;;;;;6.67;3.83;;;14.60;99.90;;;;;;5073132;28;20193;-84
2022/07/13 00:13:01;;;;;;;5.00;3.70;;;14.50;99.90;;;;;;5076058;28;20208;-83
2022/07/13 00:15:28;;;;;;;6.17;3.30;;;14.50;99.90;;;;;;5075637;28;20684;-84
2022/07/13 00:17:55;;;;;;;7.07;4.07;;;14.60;99.90;;;;;;5076074;28;20197;-83
2022/07/13 00:20:23;;;;;;;4.27;3.50;;;14.50;99.90;;;;;;5075907;28;20212;-83
2022/07/13 00:22:50;;;;;;;7.10;4.13;;;14.40;99.90;;;;;;5075640;28;20201;-83
2022/07/13 00:25:17;;;;;;;4.80;3.80;;;14.30;99.90;;;;;;5075566;28;20201;-84
2022/07/13 00:27:43;;;;;;;7.37;3.97;;;14.30;99.90;;;;;;5075760;28;20228;-84
2022/07/13 00:30:11;;;;;;;5.13;3.80;;;14.30;99.90;;;;;;5075757;28;20197;-83
2022/07/13 00:32:37;;;;;;;5.83;3.50;;;14.30;99.90;;;;;;5075608;28;20338;-83
2022/07/13 00:35:05;;;;;;;4.80;3.73;;;14.40;99.90;;;;;;5075399;28;20197;-84
2022/07/13 00:37:33;;;;;;;7.13;3.97;;;14.20;99.90;;;;;;5075367;28;20233;-83
2022/07/13 00:40:00;;;;;;;6.60;3.73;;;14.10;99.90;;;;;;5075195;28;20225;-84
2022/07/13 00:42:26;;;;;;;5.77;4.40;;;14.00;99.90;;;;;;5075228;28;20656;-82
2022/07/13 00:44:53;;;;;;;5.63;4.40;;;13.90;99.90;;;;;;5075531;28;20239;-82
2022/07/13 00:47:20;;;;;;;4.87;4.03;;;13.80;99.90;;;;;;5075343;28;20254;-83
2022/07/13 00:49:47;;;;;;;5.83;4.07;;;13.80;99.90;;;;;;5075442;28;20671;-84
2022/07/13 00:52:14;;;;;;;8.67;4.37;;;13.70;99.90;;;;;;5075202;28;20197;-84
2022/07/13 00:54:43;;;;;;;6.47;4.03;;;13.70;99.90;;;;;;5088834;28;20201;-83
2022/07/13 00:57:13;;;;;;;4.00;3.60;;;13.70;99.90;;;;;;5088702;28;20717;-84
2022/07/13 00:59:40;;;;;;;4.17;3.57;;;13.60;99.90;;;;;;5075262;28;20197;-84
2022/07/13 01:02:07;;;;;;;4.40;4.00;;;13.60;99.90;;;;;;5075150;28;20197;-84
2022/07/13 01:04:34;;;;;;;5.77;3.90;;;13.80;99.90;;;;;;5075143;28;20193;-84
2022/07/13 01:07:01;;;;;;;7.33;4.00;;;13.80;99.90;;;;;;5074917;28;20205;-84
2022/07/13 01:09:28;;;;;;;4.77;4.03;;;13.90;99.90;;;;;;5073912;28;20556;-84
2022/07/13 01:11:56;;;;;;;4.10;3.60;;;13.80;99.90;;;;;;5075060;28;20209;-84
2022/07/13 01:14:24;;;;;;;7.10;3.70;;;13.70;99.90;;;;;;5074938;28;20652;-84
2022/07/13 01:16:51;;;;;;;4.90;3.87;;;13.70;99.90;;;;;;5077205;28;20221;-84
2022/07/13 01:19:19;;;;;;;5.80;3.73;;;13.70;99.90;;;;;;5081987;28;20631;-84
2022/07/13 01:21:47;;;;;;;6.77;3.50;;;13.80;99.90;;;;;;5077934;28;20640;-84
2022/07/13 01:24:15;;;;;;;5.07;3.80;;;13.80;99.90;;;;;;5075270;28;20598;-84
2022/07/13 01:26:42;;;;;;;3.50;3.20;;;13.80;99.90;;;;;;5075622;28;20595;-84
2022/07/13 01:29:09;;;;;;;6.30;3.83;;;13.70;99.90;;;;;;5074877;28;20201;-84
2022/07/13 01:31:37;;;;;;;5.37;4.37;;;13.80;99.90;;;;;;5075453;28;20255;-84
2022/07/13 01:34:05;;;;;;;5.07;3.70;;;13.70;99.90;;;;;;5075110;28;20247;-84
2022/07/13 01:36:31;;;;;;;4.43;3.93;;;13.70;99.90;;;;;;5074536;28;20225;-84
2022/07/13 01:38:58;;;;;;;4.50;3.97;;;13.70;99.90;;;;;;5074821;28;20641;-84
2022/07/13 01:41:28;;;;;;;4.10;3.70;;;13.80;99.90;;;;;;5074957;28;20205;-84
2022/07/13 01:43:56;;;;;;;6.90;4.10;;;13.70;99.90;;;;;;5074469;28;20201;-85
2022/07/13 01:46:23;;;;;;;5.00;3.90;;;13.50;99.90;;;;;;5074145;28;20538;-84
2022/07/13 01:48:50;;;;;;;4.57;4.17;;;13.40;99.90;;;;;;5074201;28;20534;-84
2022/07/13 01:51:16;;;;;;;6.20;4.23;;;13.40;99.90;;;;;;5074359;28;20603;-84
2022/07/13 01:53:43;;;;;;;5.60;4.10;;;13.40;99.90;;;;;;5074384;28;20201;-84
2022/07/13 01:56:10;;;;;;;5.67;4.27;;;13.40;99.90;;;;;;5074334;28;20228;-84
2022/07/13 01:58:38;;;;;;;4.30;3.90;;;13.30;99.90;;;;;;5078575;28;20196;-85
2022/07/13 02:01:04;;;;;;;6.80;4.30;;;13.20;99.90;;;;;;5089037;28;20223;-81
2022/07/13 02:03:32;;;;;;;5.67;4.20;;;13.20;99.90;;;;;;5089796;28;20259;-84
2022/07/13 02:05:59;;;;;;;5.30;4.07;;;13.10;99.90;;;;;;5088324;28;20258;-82
2022/07/13 02:08:26;;;;;;;4.93;4.23;;;12.90;99.90;;;;;;5088995;28;20224;-84
2022/07/13 02:10:52;;;;;;;5.93;4.60;;;13.00;99.90;;;;;;5091977;28;20227;-84
2022/07/13 02:13:21;;;;;;;9.27;4.60;;;12.90;99.90;;;;;;5086221;28;20205;-85
2022/07/13 02:15:49;;;;;;;6.50;4.87;;;12.80;99.90;;;;;;5073393;28;20197;-83
2022/07/13 02:18:16;;;;;;;6.63;4.27;;;12.90;99.90;;;;;;5073639;28;20649;-84
2022/07/13 02:20:43;;;;;;;4.83;4.23;;;13.00;99.90;;;;;;5073583;28;20250;-84
2022/07/13 02:23:10;;;;;;;12.47;5.00;;;13.00;99.90;;;;;;5073281;28;20601;-85
2022/07/13 02:25:37;;;;;;;8.20;5.00;;;13.00;99.90;;;;;;5073441;28;20246;-84
2022/07/13 02:28:06;;;;;;;6.23;5.03;;;13.00;99.90;;;;;;5073311;28;20197;-84
2022/07/13 02:30:33;;;;;;;6.60;5.00;;;13.00;99.90;;;;;;5073319;28;20216;-84
2022/07/13 02:33:01;;;;;;;7.23;4.87;;;13.10;99.90;;;;;;5072856;28;20201;-85
2022/07/13 02:35:27;;;;;;;6.13;4.70;;;13.10;99.90;;;;;;5073497;28;20200;-84
2022/07/13 02:37:54;;;;;;;6.23;5.03;;;13.10;99.90;;;;;;5072870;28;20278;-84
2022/07/13 02:40:21;;;;;;;5.47;4.93;;;13.20;99.90;;;;;;5073157;28;20200;-84
2022/07/13 02:42:47;;;;;;;9.00;6.47;;;13.20;99.90;;;;;;5073199;28;20599;-84
2022/07/13 02:45:14;;;;;;;8.27;6.70;;;13.40;99.90;;;;;;5073288;28;20207;-84
2022/07/13 02:47:41;;;;;;;4.87;4.23;;;13.40;99.90;;;;;;5073100;28;20201;-84
2022/07/13 02:50:09;;;;;;;6.93;4.33;;;13.40;99.90;;;;;;5073199;28;20238;-83
2022/07/13 02:52:36;;;;;;;6.00;4.27;;;13.50;99.90;;;;;;5073202;28;20209;-84
2022/07/13 02:55:03;;;;;;;6.27;4.53;;;13.70;99.90;;;;;;5073101;28;20193;-84
2022/07/13 02:57:29;;;;;;;5.57;4.13;;;13.80;99.90;;;;;;5073078;28;20228;-83
2022/07/13 02:59:56;;;;;;;7.33;4.13;;;13.90;99.90;;;;;;5073238;28;20246;-83
2022/07/13 03:02:23;;;;;;;6.70;4.70;;;14.00;99.90;;;;;;5072681;28;20197;-83
2022/07/13 03:04:49;;;;;;;6.77;5.30;;;13.90;99.90;;;;;;5073023;28;20291;-84
2022/07/13 03:07:17;;;;;;;7.87;6.13;;;14.00;99.90;;;;;;5072922;28;20644;-84
2022/07/13 03:09:44;;;;;;;11.37;6.20;;;14.00;99.90;;;;;;5072865;28;20197;-82
2022/07/13 03:12:11;;;;;;;8.43;6.77;;;14.00;99.90;;;;;;5072729;28;20205;-83
2022/07/13 03:14:38;;;;;;;11.67;8.00;;;14.10;99.90;;;;;;5073178;28;20197;-83
2022/07/13 03:17:04;;;;;;;14.87;8.87;;;14.10;99.90;;;;;;5072998;28;20510;-83
2022/07/13 03:19:31;;;;;;;15.17;8.60;;;14.10;99.90;;;;;;5072952;28;20533;-83
2022/07/13 03:21:58;;;;;;;13.10;7.43;;;14.00;99.90;;;;;;5073182;28;20197;-83
2022/07/13 03:24:29;;;;;;;12.43;7.47;;;14.00;99.90;;;;;;5072721;28;20196;-83
2022/07/13 03:26:56;;;;;;;9.73;7.20;;;14.00;99.90;;;;;;5073010;28;20201;-82
2022/07/13 03:29:22;;;;;;;11.83;7.60;;;14.00;99.90;;;;;;5072867;28;20255;-83
2022/07/13 03:31:49;;;;;;;9.73;6.37;;;14.00;99.90;;;;;;5073069;28;20194;-83
2022/07/13 03:34:16;;;;;;;11.23;7.57;;;14.00;99.90;;;;;;5072753;28;20205;-83
2022/07/13 03:36:43;;;;;;;10.23;6.00;;;13.90;99.90;;;;;;5072669;28;20217;-84
2022/07/13 03:39:10;;;;;;;8.30;6.07;;;13.90;99.90;;;;;;5072382;28;20235;-83
2022/07/13 03:41:38;;;;;;;10.50;6.87;;;13.90;99.90;;;;;;5072955;28;20201;-83
2022/07/13 03:44:05;;;;;;;12.00;6.37;;;14.00;99.90;;;;;;5072899;28;20201;-83
2022/07/13 03:46:31;;;;;;;9.20;6.43;;;13.90;99.90;;;;;;5076523;28;20208;-83
2022/07/13 03:48:58;;;;;;;8.10;5.33;;;13.90;99.90;;;;;;5076355;28;20197;-83
2022/07/13 03:51:25;;;;;;;10.03;5.23;;;13.90;99.90;;;;;;5076210;28;20242;-83
2022/07/13 03:53:52;;;;;;;6.47;4.67;;;13.80;99.90;;;;;;5076178;28;20243;-84
2022/07/13 03:56:18;;;;;;;4.67;4.20;;;13.80;99.90;;;;;;5075925;28;20201;-84
2022/07/13 03:58:46;;;;;;;5.23;4.50;;;13.70;99.90;;;;;;5076292;28;20242;-84
2022/07/13 04:01:13;;;;;;;4.73;3.93;;;13.60;99.90;;;;;;5076188;28;20201;-84
2022/07/13 04:03:39;;;;;;;4.57;3.90;;;13.50;99.90;;;;;;5076040;28;20675;-83
2022/07/13 04:06:06;;;;;;;4.57;4.07;;;13.50;99.90;;;;;;5075937;28;20487;-84
2022/07/13 04:08:33;;;;;;;6.10;4.37;;;13.50;99.90;;;;;;5076223;28;20208;-84
2022/07/13 04:10:59;;;;;;;4.87;3.80;;;13.50;99.90;;;;;;5075921;28;20252;-84
2022/07/13 04:13:26;;;;;;;4.10;3.80;;;13.50;99.90;;;;;;5076046;28;20201;-84
2022/07/13 04:15:54;;;;;;;4.17;3.80;;;13.60;99.90;;;;;;5075708;28;20702;-83
2022/07/13 04:18:21;;;;;;;6.77;3.53;;;13.70;99.90;;;;;;5075789;28;20232;-83
2022/07/13 04:20:47;;;;;;;6.40;4.33;;;13.60;99.90;;;;;;5075418;28;20201;-83
2022/07/13 04:23:14;;;;;;;4.60;4.20;;;13.70;99.90;;;;;;5075706;28;20201;-83
2022/07/13 04:25:40;;;;;;;5.13;4.17;;;13.80;99.90;;;;;;5075344;28;20679;-84
2022/07/13 04:28:07;;;;;;;4.20;3.43;;;13.90;99.90;;;;;;5075466;28;20617;-83
2022/07/13 04:30:34;;;;;;;5.27;3.90;;;14.00;99.90;;;;;;5075555;28;20227;-83
2022/07/13 04:33:02;;;;;;;4.63;3.97;;;14.10;99.90;;;;;;5075228;28;20201;-77
2022/07/13 04:35:28;;;;;;;5.27;4.00;;;14.20;99.90;;;;;;5075118;28;20250;-76
2022/07/13 04:37:55;;;;;;;13.27;5.27;;;14.40;99.90;;;;;;5075019;28;20225;-76
2022/07/13 04:40:22;;;;;;;13.10;6.37;;;14.50;99.90;;;;;;5075114;28;20254;-77
2022/07/13 04:42:48;;;;;;;11.37;5.53;;;14.60;99.90;;;;;;5075133;28;20201;-77
2022/07/13 04:45:18;;;;;;;8.07;5.63;;;14.70;99.90;;;;;;5075005;28;20235;-77
2022/07/13 04:47:44;;;;;;;12.23;6.10;;;14.80;99.90;;;;;;5074867;28;20193;-76
2022/07/13 04:50:13;;;;;;;13.87;5.67;;;14.90;99.90;;;;;;5074999;28;20533;-76
2022/07/13 04:52:39;;;;;;;12.60;5.63;;;15.10;99.90;;;;;;5074949;28;20193;-76
2022/07/13 04:55:07;;;;;;;10.13;5.78;;;15.10;99.90;;;;;;5074937;28;20197;-76
2022/07/13 04:57:34;;;;;;;8.77;5.00;;;15.30;99.90;;;;;;5074142;28;20224;-77
2022/07/13 05:00:01;;;;;;;11.53;5.80;;;15.50;99.90;;;;;;5074808;28;20205;-77
2022/07/13 05:02:28;;;;;;;14.98;5.63;;;15.60;99.90;;;;;;5074693;28;20204;-77
2022/07/13 05:04:54;;;;;;;10.93;6.05;;;15.80;99.90;;;;;;5074744;28;20197;-77
2022/07/13 05:07:22;;;;;;;12.27;5.87;;;15.90;99.90;;;;;;5074803;28;20209;-76
2022/07/13 05:09:49;;;;;;;10.88;5.65;;;16.00;99.90;;;;;;5074516;28;20197;-77
2022/07/13 05:12:16;;;;;;;13.80;6.03;;;16.00;99.90;;;;;;5074379;28;20530;-76
2022/07/13 05:14:42;;;;;;;9.13;5.80;;;16.00;99.90;;;;;;5074353;28;20201;-76
2022/07/13 05:17:09;;;;;;;12.45;6.13;;;16.10;99.90;;;;;;5074064;28;20220;-77
2022/07/13 05:19:36;;;;;;;9.95;6.13;;;16.20;99.90;;;;;;5074388;28;20258;-77
2022/07/13 05:22:02;;;;;;;11.38;6.43;;;16.30;99.90;;;;;;5074211;28;20603;-79
2022/07/13 05:24:30;;;;;;;7.82;5.60;;;16.40;99.90;;;;;;5074483;28;20193;-82
2022/07/13 05:26:57;;;;;;;7.72;5.03;;;16.50;99.90;;;;;;5074122;28;20254;-82
2022/07/13 05:29:24;;;;;;;6.60;4.68;;;16.60;99.90;;;;;;5074229;28;20197;-77
2022/07/13 05:31:50;;;;;;;8.70;4.20;;;16.80;99.90;;;;;;5074173;28;20197;-79
2022/07/13 05:34:17;;;;;;;6.93;3.80;;;17.00;99.90;;;;;;5073811;28;20610;-80
2022/07/13 05:36:44;;;;;;;7.28;4.10;;;17.20;99.90;;;;;;5074058;28;20197;-80
2022/07/13 05:39:10;;;;;;;4.97;3.80;;;17.40;99.90;;;;;;5073550;28;20237;-79
2022/07/13 05:41:38;;;;;;;7.90;3.78;;;17.60;99.90;;;;;;5073493;28;20231;-80
2022/07/13 05:44:06;;;;;;;7.13;3.67;;;17.60;99.90;;;;;;5073618;28;20201;-79
2022/07/13 05:46:32;;;;;;;6.35;3.60;;;17.80;99.90;;;;;;5073907;28;20259;-79
2022/07/13 05:48:59;;;;;;;6.32;3.60;;;18.00;99.90;;;;;;5073538;28;20205;-78
2022/07/13 05:51:25;;;;;;;4.43;3.72;;;18.20;99.90;;;;;;5073799;28;20243;-79
2022/07/13 05:53:52;;;;;;;7.80;3.92;;;18.40;99.90;;;;;;5073697;28;20192;-79
2022/07/13 05:56:19;;;;;;;9.05;3.55;;;18.50;99.90;;;;;;5073759;28;20197;-79
2022/07/13 05:58:47;;;;;;;14.15;3.40;;;18.90;99.90;;;;;;5073737;28;20627;-80
2022/07/13 06:01:13;;;;;;;9.88;3.72;;;19.20;99.90;;;;;;5073733;28;20247;-80
2022/07/13 06:03:40;;;;;;;4.45;2.90;;;19.60;99.90;;;;;;5073288;28;20250;-76
2022/07/13 06:06:07;;;;;;;7.95;2.50;;;20.00;99.90;;;;;;5073378;28;20259;-75
2022/07/13 06:08:34;;;;;;;5.30;2.90;;;20.20;99.90;;;;;;5072412;28;20334;-74
2022/07/13 06:11:00;;;;;;;4.00;2.78;;;20.60;99.90;;;;;;5078945;28;20189;-76
2022/07/13 06:13:27;;;;;;;3.63;2.80;;;20.70;99.90;;;;;;5080384;28;20270;-75
2022/07/13 06:15:57;;;;;;;3.67;2.90;;;20.80;99.90;;;;;;5082757;28;20197;-73
2022/07/13 06:18:23;;;;;;;5.00;2.60;;;20.90;99.90;;;;;;5082148;28;20216;-76
2022/07/13 06:20:50;;;;;;;5.00;2.70;;;20.90;99.90;;;;;;5082476;28;20247;-74
2022/07/13 06:23:18;;;;;;;6.65;2.83;;;20.90;99.90;;;;;;5080518;28;20656;-74
2022/07/13 06:25:46;;;;;;;5.55;2.33;;;21.10;99.90;;;;;;5081951;28;20195;-74
2022/07/13 06:28:13;;;;;;;4.70;2.60;;;21.40;99.90;;;;;;5082617;28;20644;-75
2022/07/13 06:30:40;;;;;;;3.50;2.60;;;21.50;99.90;;;;;;5081181;28;20223;-73
2022/07/13 06:33:08;;;;;;;5.55;2.67;;;21.80;99.90;;;;;;5081666;28;20196;-74
2022/07/13 06:35:34;;;;;;;9.38;2.80;;;22.10;99.90;;;;;;5082686;28;20189;-74
2022/07/13 06:38:01;;;;;;;3.10;2.65;;;22.50;99.90;;;;;;5080612;28;20709;-74
2022/07/13 06:40:28;;;;;;;6.53;2.22;;;22.60;99.90;;;;;;5078997;28;20197;-74
2022/07/13 06:42:55;;;;;;;4.72;2.78;;;22.80;99.90;;;;;;5076505;28;20189;-74
2022/07/13 06:45:22;;;;;;;9.55;2.63;;;23.10;99.90;;;;;;5080691;28;20201;-74
2022/07/13 06:47:49;;;;;;;5.28;2.75;;;23.50;99.90;;;;;;5072959;28;20197;-74
2022/07/13 06:50:17;;;;;;;8.05;2.70;;;23.60;99.90;;;;;;5072579;28;20204;-76
2022/07/13 06:52:44;;;;;;;5.03;2.58;;;24.00;99.90;;;;;;5072815;28;20201;-74
2022/07/13 06:55:12;;;;;;;5.40;2.65;;;24.00;99.90;;;;;;5072513;28;20201;-73
2022/07/13 06:57:39;;;;;;;4.88;2.30;;;24.10;99.90;;;;;;5072483;28;20220;-73
2022/07/13 07:00:08;;;;;;;5.65;2.30;;;24.20;99.90;;;;;;5072766;28;20197;-75
2022/07/13 07:02:35;;;;;;;5.70;2.35;;;24.30;99.40;;;;;;5072695;28;20666;-75
2022/07/13 07:05:02;;;;;;;2.72;2.20;;;24.60;99.50;;;;;;5072689;28;20231;-76
2022/07/13 07:07:30;;;;;;;7.13;1.92;;;24.70;97.70;;;;;;5072633;28;20197;-74
2022/07/13 07:09:57;;;;;;;3.67;1.95;;;24.70;96.00;;;;;;5072517;28;20262;-74
2022/07/13 07:12:24;;;;;;;2.10;1.90;;;24.80;95.10;;;;;;5072423;28;20633;-74
2022/07/13 07:14:50;;;;;;;2.75;1.55;;;24.80;92.90;;;;;;5072495;28;20602;-74
2022/07/13 07:17:17;;;;;;;2.65;1.70;;;24.80;92.00;;;;;;5072453;28;20683;-83
2022/07/13 07:19:44;;;;;;;3.03;1.83;;;24.80;91.60;;;;;;5074077;28;20583;-85
2022/07/13 07:22:11;;;;;;;1.95;1.52;;;24.80;91.20;;;;;;5075971;28;20660;-75
2022/07/13 07:24:39;;;;;;;3.20;1.60;;;25.10;90.70;;;;;;5076587;28;20204;-75
2022/07/13 07:27:07;;;;;;;4.72;1.75;;;25.30;89.90;;;;;;5076405;28;20207;-77
2022/07/13 07:29:34;;;;;;;4.65;1.77;;;25.30;85.80;;;;;;5076501;28;20205;-76
2022/07/13 07:32:01;;;;;;;3.28;1.45;;;25.30;85.70;;;;;;5076312;28;20201;-75
2022/07/13 07:34:28;;;;;;;1.45;1.35;;;25.50;78.80;;;;;;5076219;28;20203;-75
2022/07/13 07:36:55;;;;;;;1.63;1.50;;;25.50;74.00;;;;;;5076513;28;20254;-75
2022/07/13 07:39:22;;;;;;;6.72;1.60;;;25.20;75.20;;;;;;5075868;28;20236;-74
2022/07/13 07:41:50;;;;;;;2.78;1.60;;;25.00;71.50;;;;;;5076421;28;20200;-80
2022/07/13 07:44:18;;;;;;;5.80;1.58;;;25.00;71.00;;;;;;5076021;28;20514;-80
2022/07/13 07:46:45;;;;;;;2.05;1.50;;;25.30;70.40;;;;;;5075668;28;20211;-79
2022/07/13 07:49:12;;;;;;;3.83;1.50;;;25.20;69.20;;;;;;5075303;28;20208;-81
2022/07/13 07:51:39;;;;;;;1.35;1.25;;;25.20;67.90;;;;;;5075915;28;20197;-79
2022/07/13 07:54:05;;;;;;;2.75;1.50;;;25.30;65.10;;;;;;5075949;28;20656;-80
2022/07/13 07:56:32;;;;;;;3.55;1.40;;;25.30;65.30;;;;;;5076053;28;20197;-79
2022/07/13 07:59:00;;;;;;;1.95;1.27;;;25.70;64.30;;;;;;5075843;28;20229;-79
2022/07/13 08:01:28;;;;;;;2.25;1.50;;;25.60;63.20;;;;;;5075745;28;20196;-79
2022/07/13 08:03:55;;;;;;;2.22;1.50;;;25.90;62.90;;;;;;5076080;28;20193;-79
2022/07/13 08:06:22;;;;;;;1.42;1.30;;;26.10;61.70;;;;;;5075767;28;20203;-79
2022/07/13 08:08:49;;;;;;;2.70;1.40;;;26.30;60.50;;;;;;5075745;28;20197;-79
2022/07/13 08:11:17;;;;;;;3.30;1.40;;;26.10;60.20;;;;;;5075607;28;20239;-79
2022/07/13 08:13:46;;;;;;;1.60;1.50;;;26.10;59.90;;;;;;5075670;28;20338;-80
2022/07/13 08:16:16;;;;;;;1.50;1.40;;;26.20;59.30;;;;;;5075538;28;20300;-79
2022/07/13 08:18:43;;;;;;;1.63;1.33;;;26.30;58.10;;;;;;5075535;28;20275;-78
2022/07/13 08:21:09;;;;;;;1.50;1.40;;;26.40;58.50;;;;;;5075587;28;20193;-79
2022/07/13 08:23:55;;;;;;;3.83;1.60;;;26.10;57.40;;;;;;5075523;28;20246;-79
2022/07/13 08:26:23;;;;;;;1.50;1.40;;;26.40;57.90;;;;;;5075365;28;20244;-79
2022/07/13 08:28:51;;;;;;;2.72;1.25;;;26.20;58.00;;;;;;5075412;28;20197;-79
2022/07/13 08:31:21;;;;;;;1.80;1.65;;;26.60;55.10;;;;;;5073893;28;20197;-78
2022/07/13 08:39:17;;;;;;;1.45;1.35;;;26.90;52.10;;;;;;5075033;28;20239;-79
2022/07/13 08:41:44;;;;;;;2.78;1.40;;;27.00;51.10;;;;;;5075079;28;20664;-79
2022/07/13 08:44:11;;;;;;;1.60;1.50;;;26.90;50.90;;;;;;5074641;28;20656;-79
2022/07/13 08:46:40;;;;;;;4.22;1.70;;;27.00;52.00;;;;;;5075104;28;20201;-80
2022/07/13 08:49:08;;;;;;;2.00;1.50;;;26.70;51.60;;;;;;5074792;28;20723;-79
2022/07/13 08:51:35;;;;;;;1.77;1.60;;;26.60;52.30;;;;;;5074822;28;20255;-79
2022/07/13 08:54:03;;;;;;;2.92;1.50;;;26.70;52.50;;;;;;5075020;28;20560;-80
2022/07/13 08:56:30;;;;;;;4.60;1.60;;;27.00;52.70;;;;;;5075044;28;20220;-80
2022/07/13 08:58:57;;;;;;;1.70;1.40;;;27.40;51.10;;;;;;5074731;28;20220;-80
2022/07/13 09:01:24;;;;;;;1.60;1.50;;;27.70;48.80;;;;;;5074689;28;20280;-80
2022/07/13 09:03:52;;;;;;;2.50;1.45;;;27.00;49.00;;;;;;5074539;28;20541;-80
2022/07/13 09:06:44;;;;;;;2.88;1.50;;;27.50;48.20;;;;;;5074748;28;20291;-80
2022/07/13 09:09:27;;;;;;;2.25;1.50;;;27.70;48.50;;;;;;5074556;28;20196;-79
2022/07/13 09:11:53;;;;;;;1.67;1.58;;;27.70;48.00;;;;;;5074625;28;20604;-80
2022/07/13 09:14:26;;;;;;;2.70;1.48;;;28.30;47.10;;;;;;5074266;28;20257;-79
2022/07/13 09:16:53;;;;;;;1.63;1.50;;;28.40;46.10;;;;;;5074352;28;20197;-80
2022/07/13 09:19:24;;;;;;;2.20;1.60;;;28.30;45.80;;;;;;5074025;28;20228;-80
2022/07/13 09:21:51;;;;;;;8.52;1.42;;;29.20;45.40;;;;;;5074270;28;20205;-80
2022/07/13 09:24:18;;;;;;;3.35;1.50;;;29.80;44.00;;;;;;5074284;28;20243;-78
2022/07/13 09:26:45;;;;;;;1.50;1.40;;;29.90;41.70;;;;;;5074043;28;20197;-79
2022/07/13 09:29:12;;;;;;;5.75;1.48;;;29.30;41.50;;;;;;5073997;28;20583;-80
2022/07/13 09:31:50;;;;;;;3.33;1.70;;;29.60;40.90;;;;;;5074230;28;20196;-80
2022/07/13 09:34:17;;;;;;;1.40;1.30;;;29.90;38.60;;;;;;5074171;28;20570;-80
2022/07/13 09:36:45;;;;;;;1.50;1.40;;;30.00;37.00;;;;;;5073876;28;20235;-80
2022/07/13 09:39:12;;;;;;;2.55;1.35;;;31.00;36.40;;;;;;5073847;28;20232;-80
2022/07/13 09:41:38;;;;;;;1.42;1.30;;;30.60;35.50;;;;;;5073897;28;20197;-80
2022/07/13 09:46:53;;;;;;;3.75;1.48;;;31.50;34.50;;;;;;5073867;28;20560;-80
2022/07/13 09:49:32;;;;;;;1.65;1.23;;;32.20;32.00;;;;;;5073677;28;20307;-79
2022/07/13 09:52:02;;;;;;;1.30;1.20;;;31.80;29.00;;;;;;5073943;28;20251;-78
2022/07/13 09:54:31;;;;;;;1.40;1.10;;;32.00;27.60;;;;;;5073785;28;20205;-79
2022/07/13 09:57:00;;;;;;;2.15;1.20;;;32.60;27.30;;;;;;5073708;28;20201;-80
2022/07/13 09:59:28;;;;;;;2.20;1.20;;;32.10;26.90;;;;;;5073407;28;20217;-80
2022/07/13 10:01:55;;;;;;;1.30;1.20;;;31.30;26.70;;;;;;5073508;28;20652;-80
2022/07/13 10:04:23;;;;;;;2.13;1.23;;;31.10;25.90;;;;;;5073479;28;20197;-79
2022/07/13 10:06:50;;;;;;;2.28;1.40;;;31.90;25.50;;;;;;5073784;28;20197;-79
2022/07/13 10:09:20;;;;;;;3.70;1.35;;;32.10;25.50;;;;;;5073703;28;20243;-79
2022/07/13 10:11:47;;;;;;;2.55;1.70;;;31.50;27.40;;;;;;5073993;28;20220;-79
2022/07/13 10:14:18;;;;;;;2.65;1.38;;;31.20;27.50;;;;;;5074178;28;20196;-79
2022/07/13 10:16:44;;;;;;;3.47;1.27;;;31.90;28.10;;;;;;5073865;28;20228;-79
2022/07/13 10:19:12;;;;;;;3.70;1.50;;;32.80;27.00;;;;;;5073104;28;20220;-80
2022/07/13 10:21:53;;;;;;;4.10;1.30;;;33.60;26.50;;;;;;5073062;28;20736;-78
2022/07/13 10:24:21;;;;;;;1.55;1.30;;;32.70;25.50;;;;;;5072751;28;20583;-80
2022/07/13 10:26:49;;;;;;;2.75;1.38;;;32.00;25.80;;;;;;5072490;28;20251;-80
2022/07/13 10:29:16;;;;;;;1.75;1.50;;;32.30;25.80;;;;;;5072445;28;20201;-78
2022/07/13 10:31:44;;;;;;;1.30;1.20;;;32.00;25.00;;;;;;5072259;28;20193;-80
2022/07/13 10:34:12;;;;;;;1.75;1.20;;;31.20;25.20;;;;;;5072277;28;20201;-80
2022/07/13 10:36:52;;;;;;;4.63;1.20;;;32.30;24.70;;;;;;5072831;28;20201;-80
2022/07/13 10:39:22;;;;;;;1.85;1.50;;;33.20;23.70;;;;;;5072520;28;20240;-80
2022/07/13 10:41:56;;;;;;;1.90;1.20;;;32.20;23.70;;;;;;5072867;28;20200;-80
2022/07/13 10:44:35;;;;;;;3.85;1.30;;;32.20;24.00;;;;;;5073094;28;20279;-79
2022/07/13 10:47:03;;;;;;;2.50;1.20;;;33.40;22.80;;;;;;5073033;28;20203;-80
2022/07/13 10:49:41;;;;;;;1.45;1.35;;;34.50;20.90;;;;;;5073030;28;20291;-78
2022/07/13 10:52:52;;;;;;;2.03;1.20;;;35.80;20.30;;;;;;5072764;28;20196;-79
2022/07/13 10:55:32;;;;;;;1.75;1.10;;;36.10;19.10;;;;;;5072266;28;20197;-80
2022/07/13 10:58:00;;;;;;;2.17;1.40;;;34.90;18.90;;;;;;5072674;28;20196;-80
2022/07/13 11:00:44;;;;;;;1.30;1.20;;;34.30;19.90;;;;;;5072506;28;20643;-80
2022/07/13 11:03:31;;;;;;;3.38;1.30;;;33.50;20.80;;;;;;5072758;28;20551;-80
2022/07/13 11:06:08;;;;;;;2.33;1.10;;;33.80;20.90;;;;;;5072855;28;20196;-80
2022/07/13 11:08:35;;;;;;;2.55;1.10;;;34.00;20.60;;;;;;5072554;28;20211;-80
2022/07/13 11:11:14;;;;;;;1.85;1.00;;;35.80;20.20;;;;;;5072757;28;20199;-80
2022/07/13 11:13:44;;;;;;;1.65;1.20;;;36.60;18.70;;;;;;5072841;28;20594;-78
2022/07/13 11:16:12;;;;;;;5.07;1.30;;;34.90;18.40;;;;;;5072773;28;20201;-79
2022/07/13 11:18:40;;;;;;;1.70;1.20;;;33.40;19.40;;;;;;5072506;28;20242;-80
2022/07/13 11:21:09;;;;;;;1.30;1.20;;;32.10;20.80;;;;;;5072692;28;20196;-79
2022/07/13 11:26:55;;;;;;;1.40;1.30;;;33.30;20.30;;;;;;5072757;28;20659;-79
2022/07/13 11:29:25;;;;;;;2.55;1.02;;;33.00;19.70;;;;;;5072450;28;20208;-78
2022/07/13 11:31:56;;;;;;;3.30;1.20;;;32.20;20.30;;;;;;5072381;28;20274;-78
2022/07/13 11:34:23;;;;;;;1.00;1.00;;;32.80;20.00;;;;;;5072342;28;20197;-78
2022/07/13 11:36:50;;;;;;;2.50;1.30;;;33.70;19.50;;;;;;5072438;28;20197;-79
2022/07/13 11:39:24;;;;;;;1.23;1.10;;;34.20;19.00;;;;;;5072149;28;20232;-79
2022/07/13 11:41:53;;;;;;;1.40;1.20;;;35.00;18.60;;;;;;5072226;28;20196;-78
2022/07/13 11:44:23;;;;;;;2.25;0.90;;;34.60;17.30;;;;;;5072303;28;20196;-79
2022/07/13 11:46:50;;;;;;;1.35;1.13;;;33.50;18.20;;;;;;5072255;28;20207;-81
2022/07/13 11:49:17;;;;;;;3.85;1.45;;;33.50;18.70;;;;;;5072772;28;20201;-79
2022/07/13 11:51:44;;;;;;;1.45;1.30;;;33.40;18.70;;;;;;5072274;28;20251;-79
2022/07/13 11:54:12;;;;;;;1.40;1.30;;;32.90;18.70;;;;;;5072010;28;20220;-79
2022/07/13 11:56:46;;;;;;;3.17;1.20;;;33.70;18.60;;;;;;5072161;28;20232;-79
2022/07/13 11:59:15;;;;;;;2.60;1.30;;;35.40;17.70;;;;;;5071915;28;20219;-79
2022/07/13 12:01:50;;;;;;;1.38;1.00;;;37.50;16.00;;;;;;5072175;28;20293;-79
2022/07/13 12:04:22;;;;;;;2.22;1.00;;;37.60;14.60;;;;;;5072201;28;20210;-79
2022/07/13 12:06:48;;;;;;;1.13;1.02;;;38.50;13.60;;;;;;5074886;28;20224;-79
2022/07/13 12:09:18;;;;;;;1.75;1.00;;;37.80;13.40;;;;;;5075494;28;20263;-79
2022/07/13 12:11:45;;;;;;;1.92;0.90;;;38.00;13.40;;;;;;5076471;28;20243;-80
2022/07/13 12:14:12;;;;;;;1.45;1.20;;;38.10;13.20;;;;;;5075813;28;20227;-80
2022/07/13 12:16:40;;;;;;;2.15;1.00;;;39.70;13.00;;;;;;5075704;28;20288;-80
2022/07/13 12:19:08;;;;;;;1.45;1.10;;;39.80;11.70;;;;;;5075524;28;20201;-79
2022/07/13 12:21:36;;;;;;;1.23;1.13;;;39.80;12.10;;;;;;5075465;28;20232;-80
2022/07/13 12:24:03;;;;;;;1.10;1.00;;;37.80;12.50;;;;;;5075336;28;20197;-80
2022/07/13 12:26:31;;;;;;;3.17;1.08;;;38.90;12.80;;;;;;5075634;28;20243;-80
2022/07/13 12:28:57;;;;;;;1.40;1.13;;;40.70;11.40;;;;;;5075599;28;20197;-80
2022/07/13 12:31:25;;;;;;;1.08;1.08;;;41.90;10.50;;;;;;5075243;28;20239;-80
2022/07/13 12:33:53;;;;;;;2.28;0.95;;;40.40;10.60;;;;;;5075346;28;20193;-80
2022/07/13 12:36:22;;;;;;;1.88;1.23;;;39.70;11.00;;;;;;5075329;28;20196;-81
2022/07/13 12:38:59;;;;;;;2.45;1.10;;;38.40;11.30;;;;;;5074947;28;20236;-80
2022/07/13 12:41:28;;;;;;;1.60;1.40;;;37.20;12.30;;;;;;5075323;28;20200;-79
2022/07/13 12:43:59;;;;;;;1.85;1.00;;;36.10;12.70;;;;;;5075198;28;20197;-79
2022/07/13 12:46:26;;;;;;;3.10;1.10;;;35.80;13.20;;;;;;5075818;28;20232;-80
2022/07/13 12:49:01;;;;;;;1.20;1.00;;;35.90;13.30;;;;;;5075708;28;20192;-81
2022/07/13 12:51:50;;;;;;;2.03;1.20;;;35.70;13.40;;;;;;5075546;28;20670;-80
2022/07/13 12:54:18;;;;;;;2.83;1.00;;;35.60;12.80;;;;;;5075615;28;20551;-81
2022/07/13 12:56:50;;;;;;;2.58;1.00;;;33.80;12.20;;;;;;5075689;28;20269;-80
2022/07/13 12:59:18;;;;;;;3.10;1.30;;;34.10;13.10;;;;;;5075604;28;20644;-80
2022/07/13 13:01:45;;;;;;;6.22;1.20;;;34.20;13.40;;;;;;5076012;28;20192;-80